createdAt,value
2018-07-31T00:02:24.152Z,6.50
2018-07-31T00:04:51.438Z,5.60
2018-07-31T00:07:18.759Z,5.00
2018-07-31T00:09:46.190Z,4.90
2018-07-31T00:12:13.484Z,4.75
2018-07-31T00:14:40.786Z,5.23
2018-07-31T00:21:33.885Z,7.27
2018-07-31T00:24:01.192Z,5.03
2018-07-31T00:26:28.417Z,8.20
2018-07-31T00:28:55.779Z,4.97
2018-07-31T00:31:23.009Z,6.40
2018-07-31T00:33:50.289Z,5.40
2018-07-31T00:36:17.581Z,5.00
2018-07-31T00:38:44.843Z,4.83
2018-07-31T00:41:12.076Z,6.17
2018-07-31T00:43:39.399Z,5.80
2018-07-31T00:46:06.670Z,5.27
2018-07-31T00:48:33.957Z,5.00
2018-07-31T00:51:01.239Z,5.63
2018-07-31T00:53:27.984Z,5.73
2018-07-31T00:55:55.226Z,5.20
2018-07-31T00:58:22.474Z,5.23
2018-07-31T01:00:49.730Z,6.17
2018-07-31T01:03:16.996Z,5.43
2018-07-31T01:05:44.245Z,4.80
2018-07-31T01:08:11.577Z,4.93
2018-07-31T01:10:38.830Z,6.00
2018-07-31T01:13:06.113Z,5.93
2018-07-31T01:15:36.218Z,5.70
2018-07-31T01:18:03.507Z,7.30
2018-07-31T01:20:30.941Z,5.47
2018-07-31T01:22:58.260Z,5.50
2018-07-31T01:25:25.547Z,5.10
2018-07-31T01:27:52.842Z,6.27
2018-07-31T01:30:20.086Z,6.07
2018-07-31T01:32:47.379Z,5.60
2018-07-31T01:35:14.660Z,8.00
2018-07-31T01:37:41.940Z,6.07
2018-07-31T01:40:09.269Z,5.83
2018-07-31T01:42:36.731Z,7.30
2018-07-31T01:45:04.113Z,6.50
2018-07-31T01:47:31.430Z,6.90
2018-07-31T01:49:58.725Z,6.23
2018-07-31T01:52:26.035Z,6.77
2018-07-31T01:54:53.383Z,6.27
2018-07-31T01:57:20.669Z,5.33
2018-07-31T01:59:47.971Z,5.77
2018-07-31T02:02:15.233Z,5.63
2018-07-31T02:04:42.662Z,5.30
2018-07-31T02:07:09.926Z,5.10
2018-07-31T02:09:37.232Z,7.27
2018-07-31T02:12:04.477Z,5.47
2018-07-31T02:14:31.781Z,6.40
2018-07-31T02:16:59.039Z,8.90
2018-07-31T02:19:26.308Z,7.20
2018-07-31T02:21:53.584Z,5.63
2018-07-31T02:24:20.946Z,7.37
2018-07-31T02:26:48.177Z,5.57
2018-07-31T02:29:20.040Z,5.70
2018-07-31T02:31:47.311Z,6.07
2018-07-31T02:34:14.559Z,5.73
2018-07-31T02:36:41.811Z,6.30
2018-07-31T02:39:09.067Z,6.77
2018-07-31T02:41:36.370Z,6.77
2018-07-31T02:44:03.748Z,5.33
2018-07-31T02:46:31.020Z,5.60
2018-07-31T02:48:58.283Z,5.77
2018-07-31T02:51:25.620Z,7.00
2018-07-31T02:53:52.912Z,8.67
2018-07-31T02:56:20.202Z,5.10
2018-07-31T02:58:47.450Z,7.50
2018-07-31T03:01:14.752Z,6.43
2018-07-31T03:03:42.054Z,6.63
2018-07-31T03:06:09.363Z,6.17
2018-07-31T03:08:36.666Z,6.03
2018-07-31T03:11:05.258Z,6.10
2018-07-31T03:13:32.510Z,5.67
2018-07-31T03:15:59.790Z,7.40
2018-07-31T03:18:28.018Z,6.40
2018-07-31T03:20:55.374Z,6.13
2018-07-31T03:23:22.745Z,6.10
2018-07-31T03:25:51.322Z,6.07
2018-07-31T03:28:20.354Z,6.77
2018-07-31T03:30:48.802Z,5.83
2018-07-31T03:33:16.152Z,11.43
2018-07-31T03:35:43.513Z,8.97
2018-07-31T03:38:10.883Z,7.50
2018-07-31T03:40:38.251Z,9.60
2018-07-31T03:43:05.656Z,6.87
2018-07-31T03:45:33.073Z,6.00
2018-07-31T03:48:00.409Z,7.80
2018-07-31T03:50:27.768Z,6.20
2018-07-31T03:52:55.104Z,6.37
2018-07-31T03:55:22.762Z,6.63
2018-07-31T03:57:50.092Z,6.80
2018-07-31T04:00:17.482Z,8.87
2018-07-31T04:02:44.870Z,5.97
2018-07-31T04:05:12.279Z,8.93
2018-07-31T04:07:39.841Z,6.87
2018-07-31T04:10:07.220Z,7.03
2018-07-31T04:12:34.639Z,7.07
2018-07-31T04:15:02.153Z,8.60
2018-07-31T04:17:29.845Z,7.87
2018-07-31T04:19:57.322Z,12.50
2018-07-31T04:22:24.728Z,7.60
2018-07-31T04:24:52.298Z,7.53
2018-07-31T04:27:19.618Z,7.23
2018-07-31T04:29:47.371Z,9.53
2018-07-31T04:32:15.348Z,6.33
2018-07-31T04:34:42.792Z,7.80
2018-07-31T04:37:10.217Z,9.40
2018-07-31T04:39:37.704Z,10.80
2018-07-31T04:42:05.085Z,6.93
2018-07-31T04:44:32.422Z,7.20
2018-07-31T04:46:59.848Z,6.67
2018-07-31T04:49:27.436Z,9.07
2018-07-31T04:51:54.918Z,6.27
2018-07-31T04:54:22.275Z,6.87
2018-07-31T04:56:49.771Z,7.50
2018-07-31T04:59:17.118Z,7.40
2018-07-31T05:01:44.471Z,5.93
2018-07-31T05:04:11.951Z,6.60
2018-07-31T05:06:39.406Z,7.47
2018-07-31T05:09:08.870Z,6.63
2018-07-31T05:11:36.342Z,6.60
2018-07-31T05:14:04.398Z,6.23
2018-07-31T05:16:31.764Z,5.63
2018-07-31T05:18:59.147Z,6.00
2018-07-31T05:21:27.586Z,5.43
2018-07-31T05:23:54.930Z,10.33
2018-07-31T05:26:22.385Z,5.60
2018-07-31T05:28:49.762Z,7.60
2018-07-31T05:31:17.261Z,5.60
2018-07-31T05:33:44.712Z,7.20
2018-07-31T05:36:12.224Z,5.87
2018-07-31T05:38:39.607Z,5.93
2018-07-31T05:41:07.066Z,5.53
2018-07-31T05:43:34.970Z,8.33
2018-07-31T05:46:02.366Z,5.60
2018-07-31T05:48:29.820Z,7.22
2018-07-31T05:50:57.171Z,5.83
2018-07-31T05:53:24.547Z,6.55
2018-07-31T05:55:51.894Z,7.58
2018-07-31T05:58:19.203Z,6.47
2018-07-31T06:00:46.553Z,5.70
2018-07-31T06:03:13.891Z,7.15
2018-07-31T06:05:41.362Z,5.33
2018-07-31T06:08:08.714Z,8.30
2018-07-31T06:10:37.761Z,6.30
2018-07-31T06:13:05.194Z,6.08
2018-07-31T06:15:33.519Z,8.55
2018-07-31T06:18:00.911Z,5.15
2018-07-31T06:20:28.379Z,5.67
2018-07-31T06:22:55.864Z,5.67
2018-07-31T06:25:23.239Z,9.90
2018-07-31T06:27:50.571Z,6.22
2018-07-31T06:30:17.890Z,5.53
2018-07-31T06:32:45.257Z,10.68
2018-07-31T06:35:12.563Z,9.20
2018-07-31T06:37:40.065Z,6.30
2018-07-31T06:40:07.895Z,10.25
2018-07-31T06:42:35.287Z,5.72
2018-07-31T06:45:02.668Z,8.40
2018-07-31T06:47:30.034Z,5.53
2018-07-31T06:49:57.334Z,7.28
2018-07-31T06:52:24.693Z,5.67
2018-07-31T06:54:52.043Z,6.28
2018-07-31T06:57:32.723Z,10.70
2018-07-31T07:00:00.028Z,6.15
2018-07-31T07:02:27.412Z,8.73
2018-07-31T07:04:54.708Z,6.20
2018-07-31T07:07:22.034Z,12.60
2018-07-31T07:09:49.866Z,5.08
2018-07-31T07:12:17.235Z,9.38
2018-07-31T07:14:44.549Z,6.35
2018-07-31T07:17:12.480Z,9.48
2018-07-31T07:19:41.037Z,6.45
2018-07-31T07:22:08.447Z,5.92
2018-07-31T07:24:35.811Z,8.00
2018-07-31T07:27:03.753Z,6.75
2018-07-31T07:29:32.932Z,6.85
2018-07-31T07:32:03.701Z,6.67
2018-07-31T07:34:34.213Z,7.42
2018-07-31T07:37:03.155Z,7.90
2018-07-31T07:39:31.498Z,8.70
2018-07-31T07:41:58.858Z,7.55
2018-07-31T07:44:26.182Z,7.35
2018-07-31T07:46:53.704Z,6.33
2018-07-31T07:49:21.063Z,8.48
2018-07-31T07:51:48.418Z,9.05
2018-07-31T07:54:15.974Z,6.22
2018-07-31T07:56:43.354Z,11.45
2018-07-31T07:59:10.680Z,8.58
2018-07-31T08:01:38.135Z,10.43
2018-07-31T08:04:05.746Z,11.85
2018-07-31T08:06:33.281Z,16.00
2018-07-31T08:09:00.637Z,9.70
2018-07-31T08:11:27.946Z,9.38
2018-07-31T08:13:55.335Z,24.60
2018-07-31T08:16:24.085Z,16.45
2018-07-31T08:18:51.473Z,13.45
2018-07-31T08:21:18.826Z,8.48
2018-07-31T08:23:46.247Z,5.95
2018-07-31T08:26:13.661Z,7.30
2018-07-31T08:28:41.183Z,7.67
2018-07-31T08:31:08.536Z,6.67
2018-07-31T08:33:36.277Z,7.80
2018-07-31T08:36:03.758Z,5.53
2018-07-31T08:38:31.292Z,6.85
2018-07-31T08:40:58.669Z,9.38
2018-07-31T08:43:26.044Z,7.15
2018-07-31T08:45:53.422Z,6.40
2018-07-31T08:48:20.813Z,6.70
2018-07-31T08:50:48.129Z,8.43
2018-07-31T08:53:15.764Z,5.50
2018-07-31T08:55:43.152Z,5.92
2018-07-31T08:58:10.443Z,5.92
2018-07-31T09:00:37.861Z,4.97
2018-07-31T09:03:05.172Z,5.62
2018-07-31T09:05:33.163Z,12.68
2018-07-31T09:08:00.706Z,7.58
2018-07-31T09:10:28.121Z,5.12
2018-07-31T09:12:55.627Z,9.85
2018-07-31T09:15:23.393Z,5.15
2018-07-31T09:17:51.673Z,5.28
2018-07-31T09:20:19.012Z,6.17
2018-07-31T09:22:48.495Z,5.05
2018-07-31T09:25:17.282Z,5.20
2018-07-31T09:27:45.673Z,5.12
2018-07-31T09:30:13.440Z,5.00
2018-07-31T09:32:49.069Z,6.50
2018-07-31T09:35:30.585Z,4.87
2018-07-31T09:37:57.983Z,4.85
2018-07-31T09:40:25.355Z,4.37
2018-07-31T09:42:52.722Z,5.20
2018-07-31T09:45:20.164Z,5.45
2018-07-31T09:47:47.737Z,5.40
2018-07-31T09:50:16.006Z,5.12
2018-07-31T09:52:43.562Z,4.90
2018-07-31T09:55:10.953Z,4.92
2018-07-31T09:57:38.390Z,4.70
2018-07-31T10:00:06.930Z,6.67
2018-07-31T10:02:34.358Z,6.37
2018-07-31T10:05:02.699Z,4.28
2018-07-31T10:07:30.089Z,5.35
2018-07-31T10:09:57.573Z,4.42
2018-07-31T10:12:25.229Z,6.05
2018-07-31T10:14:52.772Z,4.75
2018-07-31T10:19:56.932Z,5.05
2018-07-31T10:22:24.473Z,5.12
2018-07-31T10:24:53.425Z,4.65
2018-07-31T10:27:21.673Z,4.53
2018-07-31T10:29:50.279Z,4.70
2018-07-31T10:32:18.657Z,4.65
2018-07-31T10:34:46.693Z,4.67
2018-07-31T10:37:14.973Z,6.50
2018-07-31T10:39:42.621Z,4.72
2018-07-31T10:42:10.027Z,5.00
2018-07-31T10:44:37.456Z,4.97
2018-07-31T10:47:05.039Z,4.42
2018-07-31T10:49:33.314Z,4.62
2018-07-31T10:52:00.964Z,5.08
2018-07-31T10:54:28.376Z,4.28
2018-07-31T10:56:55.831Z,5.83
2018-07-31T10:59:23.266Z,5.20
2018-07-31T11:01:50.702Z,5.47
2018-07-31T11:04:18.149Z,4.80
2018-07-31T11:06:45.704Z,5.80
2018-07-31T11:09:13.138Z,4.62
2018-07-31T11:11:41.047Z,4.97
2018-07-31T11:14:08.966Z,4.58
2018-07-31T11:16:36.588Z,4.37
2018-07-31T11:19:04.103Z,4.33
2018-07-31T11:21:31.720Z,4.72
2018-07-31T11:23:59.380Z,6.42
2018-07-31T11:26:26.841Z,4.60
2018-07-31T11:28:54.890Z,5.25
2018-07-31T11:31:22.245Z,4.90
2018-07-31T11:33:49.910Z,4.80
2018-07-31T11:36:17.444Z,5.60
2018-07-31T11:38:44.792Z,5.10
2018-07-31T11:41:12.289Z,5.62
2018-07-31T11:43:39.644Z,5.22
2018-07-31T11:46:07.200Z,5.22
2018-07-31T11:48:48.489Z,5.08
2018-07-31T11:51:15.996Z,5.92
2018-07-31T11:53:43.350Z,6.75
2018-07-31T11:56:10.873Z,5.87
2018-07-31T11:58:38.385Z,6.42
2018-07-31T12:01:05.723Z,5.90
2018-07-31T12:03:33.248Z,5.65
2018-07-31T12:06:00.672Z,6.10
2018-07-31T12:08:28.054Z,7.70
2018-07-31T12:10:55.402Z,5.53
2018-07-31T12:13:22.733Z,5.67
2018-07-31T12:16:00.562Z,5.85
2018-07-31T12:18:38.888Z,7.78
2018-07-31T12:21:16.894Z,4.90
2018-07-31T12:23:44.314Z,4.55
2018-07-31T12:26:11.781Z,7.55
2018-07-31T12:28:39.162Z,4.85
2018-07-31T12:31:06.553Z,4.80
2018-07-31T12:33:34.092Z,5.05
2018-07-31T12:36:01.455Z,5.22
2018-07-31T12:38:28.829Z,5.12
2018-07-31T12:40:56.139Z,5.53
2018-07-31T12:43:23.488Z,4.47
2018-07-31T12:45:50.880Z,5.12
2018-07-31T12:48:18.224Z,4.47
2018-07-31T12:50:45.596Z,4.60
2018-07-31T12:53:12.961Z,5.05
2018-07-31T12:55:40.255Z,5.15
2018-07-31T12:58:07.611Z,5.30
2018-07-31T13:00:35.382Z,4.58
2018-07-31T13:03:02.755Z,4.97
2018-07-31T13:05:30.139Z,5.60
2018-07-31T13:07:57.472Z,5.65
2018-07-31T13:10:24.856Z,4.83
2018-07-31T13:12:52.220Z,4.65
2018-07-31T13:15:19.570Z,5.15
2018-07-31T13:17:46.909Z,4.62
2018-07-31T13:20:14.346Z,4.58
2018-07-31T13:22:41.723Z,4.70
2018-07-31T13:25:09.116Z,5.60
2018-07-31T13:27:36.499Z,5.67
2018-07-31T13:30:04.603Z,5.60
2018-07-31T13:32:45.848Z,3.90
2018-07-31T13:35:13.484Z,4.67
2018-07-31T13:37:41.010Z,5.17
2018-07-31T13:40:08.602Z,4.53
2018-07-31T13:42:36.040Z,6.22
2018-07-31T13:45:03.429Z,4.37
2018-07-31T13:47:30.925Z,4.40
2018-07-31T13:49:58.270Z,5.28
2018-07-31T13:52:25.732Z,4.72
2018-07-31T13:54:53.113Z,5.92
2018-07-31T13:57:20.518Z,4.80
2018-07-31T13:59:47.999Z,4.28
2018-07-31T14:02:15.398Z,4.78
2018-07-31T14:04:42.823Z,7.60
2018-07-31T14:07:10.568Z,5.08
2018-07-31T14:09:37.848Z,4.53
2018-07-31T14:12:05.235Z,4.72
2018-07-31T14:14:32.626Z,5.03
2018-07-31T14:17:00.060Z,5.30
2018-07-31T14:19:27.534Z,5.28
2018-07-31T14:21:54.926Z,5.00
2018-07-31T14:24:22.367Z,6.28
2018-07-31T14:26:50.049Z,10.72
2018-07-31T14:29:17.528Z,5.22
2018-07-31T14:31:44.904Z,5.20
2018-07-31T14:34:12.409Z,5.62
2018-07-31T14:36:40.065Z,4.62
2018-07-31T14:39:08.971Z,7.10
2018-07-31T14:41:36.869Z,5.08
2018-07-31T14:44:04.375Z,5.08
2018-07-31T14:46:31.967Z,5.92
2018-07-31T14:48:59.281Z,5.22
2018-07-31T14:51:26.647Z,4.50
2018-07-31T14:53:54.023Z,4.65
2018-07-31T14:56:25.355Z,5.05
2018-07-31T14:58:53.463Z,4.92
2018-07-31T15:01:26.179Z,4.85
2018-07-31T15:03:58.593Z,5.45
2018-07-31T15:06:30.715Z,5.53
2018-07-31T15:09:03.015Z,5.30
2018-07-31T15:11:35.831Z,4.92
2018-07-31T15:14:09.042Z,4.87
2018-07-31T15:16:36.721Z,5.08
2018-07-31T15:19:04.050Z,5.50
2018-07-31T15:21:31.611Z,4.60
2018-07-31T15:23:59.006Z,4.65
2018-07-31T15:26:26.582Z,4.95
2018-07-31T15:28:53.925Z,5.60
2018-07-31T15:31:21.288Z,4.37
2018-07-31T15:33:48.674Z,4.67
2018-07-31T15:36:16.024Z,5.28
2018-07-31T15:38:43.570Z,5.20
2018-07-31T15:41:10.956Z,10.25
2018-07-31T15:43:38.379Z,4.70
2018-07-31T15:46:05.800Z,7.15
2018-07-31T15:48:33.183Z,8.03
2018-07-31T15:51:00.635Z,4.70
2018-07-31T15:53:28.052Z,6.15
2018-07-31T15:55:55.643Z,6.65
2018-07-31T15:58:23.084Z,5.42
2018-07-31T16:00:50.575Z,6.00
2018-07-31T16:03:17.971Z,6.80
2018-07-31T16:05:45.473Z,10.63
2018-07-31T16:08:14.059Z,6.58
2018-07-31T16:10:41.434Z,4.37
2018-07-31T16:13:08.841Z,6.70
2018-07-31T16:15:36.811Z,4.33
2018-07-31T16:18:04.256Z,4.55
2018-07-31T16:20:31.640Z,4.40
2018-07-31T16:22:59.069Z,4.20
2018-07-31T16:25:26.539Z,4.70
2018-07-31T16:27:53.995Z,5.25
2018-07-31T16:30:21.387Z,5.05
2018-07-31T16:32:48.770Z,5.85
2018-07-31T16:35:16.079Z,5.22
2018-07-31T16:37:43.589Z,3.70
2018-07-31T16:40:10.901Z,6.70
2018-07-31T16:42:38.213Z,5.70
2018-07-31T16:45:05.728Z,6.10
2018-07-31T16:47:33.218Z,5.85
2018-07-31T16:50:00.569Z,4.28
2018-07-31T16:52:28.006Z,4.03
2018-07-31T16:54:55.428Z,7.47
2018-07-31T16:57:22.831Z,4.90
2018-07-31T16:59:50.926Z,4.62
2018-07-31T17:02:18.324Z,5.00
2018-07-31T17:04:46.470Z,6.22
2018-07-31T17:07:13.909Z,6.78
2018-07-31T17:09:43.507Z,4.47
2018-07-31T17:12:10.860Z,5.45
2018-07-31T17:14:38.207Z,5.72
2018-07-31T17:17:05.815Z,4.37
2018-07-31T17:19:33.215Z,6.08
2018-07-31T17:22:09.096Z,4.65
2018-07-31T17:24:39.279Z,4.83
2018-07-31T17:27:06.960Z,4.78
2018-07-31T17:29:35.471Z,13.28
2018-07-31T17:32:02.899Z,8.53
2018-07-31T17:34:31.383Z,7.15
2018-07-31T17:36:58.827Z,6.72
2018-07-31T17:39:26.337Z,9.30
2018-07-31T17:41:53.882Z,8.23
2018-07-31T17:44:21.898Z,6.80
2018-07-31T17:46:50.283Z,4.35
2018-07-31T17:49:18.451Z,5.08
2018-07-31T17:51:45.886Z,6.03
2018-07-31T17:54:13.594Z,5.60
2018-07-31T17:56:41.098Z,6.17
2018-07-31T17:59:08.485Z,14.33
2018-07-31T18:01:36.210Z,10.20
2018-07-31T18:04:04.098Z,9.30
2018-07-31T18:06:31.566Z,8.05
2018-07-31T18:08:59.450Z,5.50
2018-07-31T18:11:27.660Z,4.22
2018-07-31T18:13:55.230Z,4.83
2018-07-31T18:16:23.169Z,4.58
2018-07-31T18:18:52.766Z,4.50
2018-07-31T18:21:20.330Z,6.58
2018-07-31T18:23:47.791Z,5.35
2018-07-31T18:26:15.132Z,4.67
2018-07-31T18:28:42.836Z,4.62
2018-07-31T18:31:10.409Z,6.87
2018-07-31T18:33:37.997Z,5.33
2018-07-31T18:36:06.173Z,5.50
2018-07-31T18:38:33.886Z,10.72
2018-07-31T18:41:01.612Z,236.52
2018-07-31T18:43:29.516Z,80.55
2018-07-31T18:45:56.959Z,32.95
2018-07-31T18:48:24.364Z,6.87
2018-07-31T18:50:51.726Z,7.55
2018-07-31T18:53:19.120Z,8.03
2018-07-31T18:55:46.542Z,5.47
2018-07-31T18:58:13.899Z,7.00
2018-07-31T19:00:41.428Z,8.53
2018-07-31T19:03:08.891Z,7.42
2018-07-31T19:05:36.523Z,6.22
2018-07-31T19:08:03.904Z,5.33
2018-07-31T19:10:33.270Z,8.30
2018-07-31T19:13:03.744Z,7.87
2018-07-31T19:15:31.881Z,6.55
2018-07-31T19:18:00.336Z,6.65
2018-07-31T19:20:27.820Z,9.68
2018-07-31T19:22:55.545Z,6.95
2018-07-31T19:25:24.128Z,7.78
2018-07-31T19:27:51.706Z,10.15
2018-07-31T19:30:19.492Z,4.90
2018-07-31T19:32:47.253Z,13.30
2018-07-31T19:35:16.107Z,9.58
2018-07-31T19:37:44.022Z,23.85
2018-07-31T19:40:24.460Z,63.87
2018-07-31T19:42:54.252Z,37.78
2018-07-31T19:45:22.183Z,25.08
2018-07-31T19:47:51.653Z,26.90
2018-07-31T19:50:20.085Z,27.52
2018-07-31T19:52:48.251Z,38.38
2018-07-31T19:55:18.339Z,23.95
2018-07-31T19:57:46.359Z,23.80
2018-07-31T20:00:17.563Z,17.90
2018-07-31T20:02:45.586Z,16.55
2018-07-31T20:05:14.015Z,18.20
2018-07-31T20:07:41.796Z,41.55
2018-07-31T20:10:10.150Z,22.70
2018-07-31T20:12:38.329Z,28.35
2018-07-31T20:15:09.054Z,266.65
2018-07-31T20:17:36.572Z,104.95
2018-07-31T20:20:04.108Z,45.00
2018-07-31T20:22:31.402Z,22.52
2018-07-31T20:24:58.680Z,57.20
2018-07-31T20:27:25.990Z,29.87
2018-07-31T20:29:53.235Z,10.98
2018-07-31T20:32:20.527Z,8.25
2018-07-31T20:34:47.910Z,17.30
2018-07-31T20:37:15.182Z,47.50
2018-07-31T20:39:42.432Z,25.00
2018-07-31T20:42:09.706Z,171.30
2018-07-31T20:44:37.004Z,150.70
2018-07-31T20:47:04.331Z,104.35
2018-07-31T20:49:31.584Z,71.57
2018-07-31T20:51:58.851Z,22.17
2018-07-31T20:54:26.101Z,9.73
2018-07-31T20:56:53.361Z,22.13
2018-07-31T20:59:20.586Z,28.62
2018-07-31T21:01:47.855Z,86.42
2018-07-31T21:04:15.115Z,200.82
2018-07-31T21:06:42.359Z,244.93
2018-07-31T21:09:11.346Z,104.03
2018-07-31T21:11:38.626Z,31.17
2018-07-31T21:14:05.905Z,10.03
2018-07-31T21:16:33.189Z,12.95
2018-07-31T21:19:00.466Z,11.23
2018-07-31T21:21:27.732Z,16.50
2018-07-31T21:23:55.050Z,6.93
2018-07-31T21:26:22.323Z,14.50
2018-07-31T21:28:49.573Z,13.47
2018-07-31T21:31:24.123Z,9.27
2018-07-31T21:33:51.573Z,11.03
2018-07-31T21:36:18.917Z,11.63
2018-07-31T21:38:46.162Z,9.63
2018-07-31T21:41:13.475Z,11.57
2018-07-31T21:43:40.715Z,14.00
2018-07-31T21:46:08.066Z,9.83
2018-07-31T21:48:35.336Z,15.30
2018-07-31T21:51:02.597Z,6.63
2018-07-31T21:53:29.894Z,9.60
2018-07-31T21:55:57.185Z,7.90
2018-07-31T21:58:24.438Z,12.20
2018-07-31T22:00:57.438Z,6.73
2018-07-31T22:03:24.721Z,8.30
2018-07-31T22:05:52.096Z,9.80
2018-07-31T22:08:19.343Z,8.70
2018-07-31T22:10:46.594Z,10.13
2018-07-31T22:13:13.867Z,6.40
2018-07-31T22:15:41.175Z,7.70
2018-07-31T22:18:08.658Z,7.03
2018-07-31T22:20:35.992Z,8.73
2018-07-31T22:23:03.281Z,7.77
2018-07-31T22:25:30.534Z,8.33
2018-07-31T22:27:57.826Z,8.93
2018-07-31T22:30:25.077Z,5.00
2018-07-31T22:32:52.352Z,5.60
2018-07-31T22:35:19.598Z,5.93
2018-07-31T22:37:46.874Z,9.53
2018-07-31T22:40:14.140Z,6.97
2018-07-31T22:42:51.743Z,6.10
2018-07-31T22:45:19.038Z,7.20
2018-07-31T22:47:46.301Z,7.63
2018-07-31T22:50:13.585Z,10.47
2018-07-31T22:52:40.836Z,12.20
2018-07-31T22:55:08.123Z,8.70
2018-07-31T22:57:35.398Z,5.13
2018-07-31T23:00:02.662Z,9.67
2018-07-31T23:02:29.966Z,5.27
2018-07-31T23:04:57.213Z,5.47
2018-07-31T23:07:24.547Z,5.37
2018-07-31T23:10:01.223Z,11.77
2018-07-31T23:12:28.553Z,5.23
2018-07-31T23:14:55.786Z,5.00
2018-07-31T23:17:23.071Z,5.20
2018-07-31T23:19:50.444Z,7.83
2018-07-31T23:22:29.299Z,5.27
2018-07-31T23:24:56.565Z,6.57
2018-07-31T23:27:23.855Z,7.93
2018-07-31T23:29:51.093Z,8.50
2018-07-31T23:32:18.364Z,10.43
2018-07-31T23:34:45.591Z,4.87
2018-07-31T23:37:14.567Z,9.43
2018-07-31T23:39:41.795Z,5.93
2018-07-31T23:42:09.059Z,9.17
2018-07-31T23:44:36.326Z,7.03
2018-07-31T23:47:03.578Z,5.67
2018-07-31T23:49:31.041Z,6.93
2018-07-31T23:51:58.345Z,6.90
2018-07-31T23:54:25.587Z,5.83
2018-07-31T23:56:52.863Z,7.23
2018-07-31T23:59:20.145Z,5.67
